createdAt,value
2016-09-02T00:02:04.180Z,37.3
2016-09-02T00:07:04.192Z,37.2
2016-09-02T00:12:04.269Z,37.2
2016-09-02T00:17:04.417Z,37.3
2016-09-02T00:22:04.229Z,37.1
2016-09-02T00:27:04.049Z,37.1
2016-09-02T00:32:03.883Z,37.0
2016-09-02T00:37:04.057Z,37.2
2016-09-02T00:42:03.883Z,37.0
2016-09-02T00:47:03.745Z,37.0
2016-09-02T00:52:04.098Z,37.1
2016-09-02T00:57:04.031Z,37.1
2016-09-02T01:02:03.985Z,37.0
2016-09-02T01:07:03.910Z,37.1
2016-09-02T01:12:04.083Z,37.1
2016-09-02T01:17:03.965Z,37.0
2016-09-02T01:22:03.840Z,37.1
2016-09-02T01:27:03.622Z,37.1
2016-09-02T01:32:04.286Z,37.2
2016-09-02T01:37:03.828Z,37.1
2016-09-02T01:42:03.479Z,37.2
2016-09-02T01:47:04.158Z,37.1
2016-09-02T01:52:03.874Z,37.0
2016-09-02T01:57:03.668Z,37.0
2016-09-02T02:02:04.354Z,37.1
2016-09-02T02:07:04.098Z,37.1
2016-09-02T02:12:03.651Z,37.0
2016-09-02T02:17:04.414Z,37.0
2016-09-02T02:22:04.197Z,37.0
2016-09-02T02:27:03.866Z,37.1
2016-09-02T02:32:04.344Z,37.0
2016-09-02T02:37:03.936Z,37.0
2016-09-02T02:42:03.986Z,37.0
2016-09-02T02:47:04.237Z,36.9
2016-09-02T02:52:04.334Z,37.0
2016-09-02T02:57:03.562Z,36.9
2016-09-02T03:02:03.873Z,37.2
2016-09-02T03:07:04.085Z,37.1
2016-09-02T03:12:04.300Z,37.0
2016-09-02T03:17:04.276Z,37.0
2016-09-02T03:22:03.880Z,37.1
2016-09-02T03:27:04.118Z,36.8
2016-09-02T03:32:04.236Z,36.8
2016-09-02T03:37:03.557Z,36.9
2016-09-02T03:42:03.599Z,36.8
2016-09-02T03:47:03.729Z,36.8
2016-09-02T03:52:04.097Z,36.8
2016-09-02T03:57:04.292Z,36.7
2016-09-02T04:02:03.726Z,36.8
2016-09-02T04:07:04.336Z,36.8
2016-09-02T04:12:04.041Z,36.8
2016-09-02T04:17:20.627Z,36.9
2016-09-02T04:22:04.289Z,36.8
2016-09-02T04:27:04.216Z,37.0
2016-09-02T04:32:29.662Z,36.9
2016-09-02T04:37:04.371Z,37.0
2016-09-02T04:42:04.334Z,37.0
2016-09-02T04:47:30.899Z,37.1
2016-09-02T04:52:04.265Z,37.0
2016-09-02T04:57:03.440Z,37.1
2016-09-02T05:02:31.413Z,37.0
2016-09-02T05:07:03.432Z,36.8
2016-09-02T05:12:03.955Z,37.0
2016-09-02T05:17:31.967Z,36.8
2016-09-02T05:22:03.951Z,36.7
2016-09-02T05:27:03.509Z,36.8
2016-09-02T05:32:31.694Z,36.8
2016-09-02T05:37:04.150Z,36.7
2016-09-02T05:42:03.535Z,36.8
2016-09-02T05:47:34.586Z,36.8
2016-09-02T05:52:03.981Z,36.8
2016-09-02T05:57:03.950Z,36.9
2016-09-02T06:02:31.896Z,36.8
2016-09-02T06:07:03.720Z,36.9
2016-09-02T06:12:03.912Z,36.7
2016-09-02T06:17:36.938Z,36.7
2016-09-02T06:22:03.774Z,36.7
2016-09-02T06:27:04.037Z,36.7
2016-09-02T06:32:36.899Z,36.8
2016-09-02T06:37:04.141Z,36.8
2016-09-02T06:42:03.944Z,36.8
2016-09-02T06:47:32.308Z,36.7
2016-09-02T06:52:03.834Z,36.7
2016-09-02T06:57:03.447Z,36.7
2016-09-02T07:02:33.031Z,36.7
2016-09-02T07:07:04.083Z,36.7
2016-09-02T07:12:04.470Z,36.6
2016-09-02T07:17:32.009Z,36.6
2016-09-02T07:22:03.519Z,36.6
2016-09-02T07:27:03.965Z,36.8
2016-09-02T07:32:39.996Z,36.7
2016-09-02T07:37:03.799Z,36.8
2016-09-02T07:42:03.963Z,36.9
2016-09-02T07:47:31.553Z,36.9
2016-09-02T07:52:03.831Z,36.8
2016-09-02T07:57:03.701Z,37.1
2016-09-02T08:02:32.541Z,37.4
2016-09-02T08:07:03.790Z,37.4
2016-09-02T08:12:04.263Z,37.5
2016-09-02T08:17:31.603Z,37.5
2016-09-02T08:22:03.559Z,37.4
2016-09-02T08:27:04.356Z,37.6
2016-09-02T08:32:31.693Z,37.4
2016-09-02T08:37:03.630Z,37.3
2016-09-02T08:42:04.351Z,37.7
2016-09-02T08:47:36.482Z,37.7
2016-09-02T08:52:04.020Z,37.6
2016-09-02T08:57:03.389Z,37.9
2016-09-02T09:02:32.064Z,37.9
2016-09-02T09:07:03.389Z,37.9
2016-09-02T09:12:03.769Z,38.0
2016-09-02T09:17:42.871Z,38.0
2016-09-02T09:22:04.369Z,38.1
2016-09-02T09:27:04.225Z,38.0
2016-09-02T09:32:32.019Z,38.4
2016-09-02T09:37:04.245Z,38.5
2016-09-02T09:42:03.835Z,38.4
2016-09-02T09:47:36.564Z,38.4
2016-09-02T09:52:04.068Z,38.5
2016-09-02T09:57:04.287Z,38.5
2016-09-02T10:02:33.573Z,38.7
2016-09-02T10:07:03.629Z,38.6
2016-09-02T10:12:03.835Z,38.5
2016-09-02T10:17:32.152Z,38.7
2016-09-02T10:22:03.637Z,38.7
2016-09-02T10:27:03.554Z,38.8
2016-09-02T10:32:32.884Z,38.8
2016-09-02T10:37:03.614Z,38.8
2016-09-02T10:42:03.878Z,38.6
2016-09-02T10:47:30.906Z,38.6
2016-09-02T10:52:03.342Z,38.9
2016-09-02T10:57:03.576Z,38.9
2016-09-02T11:02:37.308Z,38.7
2016-09-02T11:07:04.175Z,39.3
2016-09-02T11:12:04.244Z,39.2
2016-09-02T11:17:34.455Z,38.8
2016-09-02T11:22:03.584Z,38.8
2016-09-02T11:27:03.896Z,38.7
2016-09-02T11:32:31.542Z,39.0
2016-09-02T11:37:04.177Z,38.7
2016-09-02T11:42:04.102Z,38.9
2016-09-02T11:47:35.900Z,38.5
2016-09-02T11:52:03.580Z,38.5
2016-09-02T11:57:04.534Z,39.0
2016-09-02T12:02:31.465Z,39.0
2016-09-02T12:07:04.030Z,38.9
2016-09-02T12:12:04.025Z,38.5
2016-09-02T12:17:31.066Z,38.5
2016-09-02T12:22:03.830Z,39.1
2016-09-02T12:27:04.221Z,39.0
2016-09-02T12:32:32.792Z,38.8
2016-09-02T12:37:04.374Z,39.3
2016-09-02T12:42:03.655Z,39.3
2016-09-02T12:47:37.273Z,38.8
2016-09-02T12:52:03.927Z,38.8
2016-09-02T12:57:03.732Z,38.8
2016-09-02T13:02:31.378Z,38.8
2016-09-02T13:07:03.858Z,38.6
2016-09-02T13:12:03.808Z,38.6
2016-09-02T13:17:31.589Z,38.4
2016-09-02T13:22:03.532Z,38.5
2016-09-02T13:27:04.301Z,38.5
2016-09-02T13:32:29.554Z,38.5
2016-09-02T13:37:04.313Z,38.6
2016-09-02T13:42:04.146Z,38.6
2016-09-02T13:47:31.404Z,38.7
2016-09-02T13:52:04.156Z,38.6
2016-09-02T13:57:03.756Z,38.2
2016-09-02T20:02:04.786Z,38.4
2016-09-02T20:07:03.785Z,38.4
2016-09-02T20:12:03.604Z,38.4
2016-09-02T20:17:04.273Z,38.5
2016-09-02T20:22:03.747Z,38.3
2016-09-02T20:27:04.214Z,38.3
2016-09-02T20:32:04.231Z,38.3
2016-09-02T20:37:04.420Z,38.5
2016-09-02T20:42:03.955Z,38.3
2016-09-02T20:47:04.358Z,38.3
2016-09-02T20:52:04.003Z,38.3
2016-09-02T20:57:04.079Z,38.2
2016-09-02T21:02:03.713Z,38.3
2016-09-02T21:12:04.214Z,38.2
2016-09-02T21:17:04.004Z,38.2
2016-09-02T21:22:04.076Z,38.1
2016-09-02T21:27:03.899Z,38.2
2016-09-02T21:32:04.154Z,38.2
2016-09-02T21:37:04.190Z,38.1
2016-09-02T21:42:03.706Z,38.0
2016-09-02T21:47:04.001Z,37.9
2016-09-02T21:52:03.680Z,38.0
2016-09-02T21:57:03.703Z,37.9
2016-09-02T22:02:03.839Z,37.9
2016-09-02T22:07:04.326Z,38.1
2016-09-02T22:12:03.882Z,38.2
2016-09-02T22:22:04.596Z,38.1
2016-09-02T22:27:03.971Z,38.3
2016-09-02T22:32:04.507Z,38.2
2016-09-02T22:37:04.209Z,38.1
2016-09-02T22:42:04.141Z,38.1
2016-09-02T22:47:03.927Z,38.1
2016-09-02T22:52:03.524Z,38.2
2016-09-02T22:57:04.177Z,38.1
2016-09-02T23:02:07.134Z,38.1
2016-09-02T23:07:03.636Z,38.1
2016-09-02T23:12:04.216Z,38.1
2016-09-02T23:17:07.871Z,37.6
2016-09-02T23:22:03.893Z,38.1
2016-09-02T23:42:04.029Z,38.2
2016-09-02T23:47:04.018Z,38.1
2016-09-02T23:52:04.217Z,38.1
2016-09-02T23:57:04.168Z,38.2
